sensor_id;sensor_type;location;lat;lon;timestamp;P1;durP1;ratioP1;P2;durP2;ratioP2
32172;SDS011;18679;45.190;5.722;2023-03-14T00:01:39;0.00;;;0.00;;
32172;SDS011;18679;45.190;5.722;2023-03-14T00:04:40;2.20;;;0.30;;
32172;SDS011;18679;45.190;5.722;2023-03-14T00:07:42;0.47;;;0.13;;
32172;SDS011;18679;45.190;5.722;2023-03-14T00:10:43;0.20;;;0.20;;
32172;SDS011;18679;45.190;5.722;2023-03-14T00:13:46;1.88;;;0.30;;
32172;SDS011;18679;45.190;5.722;2023-03-14T00:16:48;0.70;;;0.13;;
32172;SDS011;18679;45.190;5.722;2023-03-14T00:19:49;0.38;;;0.17;;
32172;SDS011;18679;45.190;5.722;2023-03-14T00:22:52;0.10;;;0.10;;
32172;SDS011;18679;45.190;5.722;2023-03-14T00:25:53;2.80;;;0.15;;
32172;SDS011;18679;45.190;5.722;2023-03-14T00:28:58;0.10;;;0.10;;
32172;SDS011;18679;45.190;5.722;2023-03-14T00:31:59;0.05;;;0.00;;
32172;SDS011;18679;45.190;5.722;2023-03-14T00:34:59;0.65;;;0.10;;
32172;SDS011;18679;45.190;5.722;2023-03-14T00:38:01;4.03;;;0.28;;
32172;SDS011;18679;45.190;5.722;2023-03-14T00:41:06;0.17;;;0.03;;
32172;SDS011;18679;45.190;5.722;2023-03-14T02:06:26;2.60;;;0.10;;
32172;SDS011;18679;45.190;5.722;2023-03-14T03:45:44;0.13;;;0.10;;
32172;SDS011;18679;45.190;5.722;2023-03-14T04:47:31;3.30;;;0.30;;
32172;SDS011;18679;45.190;5.722;2023-03-14T05:02:30;2.63;;;0.28;;
32172;SDS011;18679;45.190;5.722;2023-03-14T05:26:25;0.10;;;0.10;;
32172;SDS011;18679;45.190;5.722;2023-03-14T05:29:46;0.93;;;0.20;;
32172;SDS011;18679;45.190;5.722;2023-03-14T05:32:53;0.52;;;0.17;;
32172;SDS011;18679;45.190;5.722;2023-03-14T05:45:13;0.32;;;0.28;;
32172;SDS011;18679;45.190;5.722;2023-03-14T06:18:09;1.40;;;0.43;;
32172;SDS011;18679;45.190;5.722;2023-03-14T06:21:12;2.22;;;0.50;;
32172;SDS011;18679;45.190;5.722;2023-03-14T06:24:14;2.38;;;0.20;;
32172;SDS011;18679;45.190;5.722;2023-03-14T06:27:20;0.20;;;0.20;;
32172;SDS011;18679;45.190;5.722;2023-03-14T06:30:22;0.40;;;0.20;;
32172;SDS011;18679;45.190;5.722;2023-03-14T06:33:23;3.10;;;0.28;;
32172;SDS011;18679;45.190;5.722;2023-03-14T06:36:24;0.73;;;0.50;;
32172;SDS011;18679;45.190;5.722;2023-03-14T06:39:25;1.17;;;0.40;;
32172;SDS011;18679;45.190;5.722;2023-03-14T06:42:34;4.25;;;0.30;;
32172;SDS011;18679;45.190;5.722;2023-03-14T06:45:35;0.43;;;0.20;;
32172;SDS011;18679;45.190;5.722;2023-03-14T06:48:37;1.02;;;0.45;;
32172;SDS011;18679;45.190;5.722;2023-03-14T06:51:38;0.45;;;0.30;;
32172;SDS011;18679;45.190;5.722;2023-03-14T06:54:41;1.30;;;0.98;;
32172;SDS011;18679;45.190;5.722;2023-03-14T06:57:42;0.20;;;0.20;;
32172;SDS011;18679;45.190;5.722;2023-03-14T07:00:44;4.90;;;0.43;;
32172;SDS011;18679;45.190;5.722;2023-03-14T07:03:48;1.00;;;0.20;;
32172;SDS011;18679;45.190;5.722;2023-03-14T07:06:49;0.10;;;0.10;;
32172;SDS011;18679;45.190;5.722;2023-03-14T07:09:50;2.85;;;0.30;;
32172;SDS011;18679;45.190;5.722;2023-03-14T07:12:51;0.73;;;0.40;;
32172;SDS011;18679;45.190;5.722;2023-03-14T07:15:53;3.15;;;0.30;;
32172;SDS011;18679;45.190;5.722;2023-03-14T07:18:55;4.93;;;0.57;;
32172;SDS011;18679;45.190;5.722;2023-03-14T07:21:56;1.80;;;0.40;;
32172;SDS011;18679;45.190;5.722;2023-03-14T07:25:00;1.23;;;0.57;;
32172;SDS011;18679;45.190;5.722;2023-03-14T07:28:02;0.35;;;0.30;;
32172;SDS011;18679;45.190;5.722;2023-03-14T07:31:04;0.57;;;0.47;;
32172;SDS011;18679;45.190;5.722;2023-03-14T07:34:06;0.95;;;0.57;;
32172;SDS011;18679;45.190;5.722;2023-03-14T07:37:11;1.58;;;0.40;;
32172;SDS011;18679;45.190;5.722;2023-03-14T07:40:12;0.80;;;0.43;;
32172;SDS011;18679;45.190;5.722;2023-03-14T07:43:16;1.55;;;0.43;;
32172;SDS011;18679;45.190;5.722;2023-03-14T07:46:21;1.85;;;0.55;;
32172;SDS011;18679;45.190;5.722;2023-03-14T07:49:23;5.18;;;1.00;;
32172;SDS011;18679;45.190;5.722;2023-03-14T07:52:24;0.50;;;0.40;;
32172;SDS011;18679;45.190;5.722;2023-03-14T07:55:25;1.50;;;0.52;;
32172;SDS011;18679;45.190;5.722;2023-03-14T07:58:26;1.50;;;0.70;;
32172;SDS011;18679;45.190;5.722;2023-03-14T08:01:27;8.60;;;1.00;;
32172;SDS011;18679;45.190;5.722;2023-03-14T08:04:28;6.32;;;1.25;;
32172;SDS011;18679;45.190;5.722;2023-03-14T08:20:33;0.98;;;0.80;;
32172;SDS011;18679;45.190;5.722;2023-03-14T08:23:35;3.10;;;1.30;;
32172;SDS011;18679;45.190;5.722;2023-03-14T08:26:37;1.70;;;1.02;;
32172;SDS011;18679;45.190;5.722;2023-03-14T08:29:38;2.17;;;1.00;;
32172;SDS011;18679;45.190;5.722;2023-03-14T08:32:41;2.83;;;0.90;;
32172;SDS011;18679;45.190;5.722;2023-03-14T08:35:43;3.28;;;1.30;;
32172;SDS011;18679;45.190;5.722;2023-03-14T08:38:44;2.45;;;1.00;;
32172;SDS011;18679;45.190;5.722;2023-03-14T08:41:46;2.80;;;1.13;;
32172;SDS011;18679;45.190;5.722;2023-03-14T08:44:50;3.83;;;1.77;;
32172;SDS011;18679;45.190;5.722;2023-03-14T08:47:52;3.90;;;1.33;;
32172;SDS011;18679;45.190;5.722;2023-03-14T08:50:53;1.58;;;0.80;;
32172;SDS011;18679;45.190;5.722;2023-03-14T08:53:54;1.27;;;0.90;;
32172;SDS011;18679;45.190;5.722;2023-03-14T08:56:55;1.70;;;0.60;;
32172;SDS011;18679;45.190;5.722;2023-03-14T08:59:56;0.85;;;0.40;;
32172;SDS011;18679;45.190;5.722;2023-03-14T09:02:58;0.93;;;0.60;;
32172;SDS011;18679;45.190;5.722;2023-03-14T09:06:05;3.25;;;0.90;;
32172;SDS011;18679;45.190;5.722;2023-03-14T09:09:08;3.75;;;0.77;;
32172;SDS011;18679;45.190;5.722;2023-03-14T09:12:09;2.60;;;0.75;;
32172;SDS011;18679;45.190;5.722;2023-03-14T09:15:10;1.10;;;0.60;;
32172;SDS011;18679;45.190;5.722;2023-03-14T09:18:11;2.80;;;0.90;;
32172;SDS011;18679;45.190;5.722;2023-03-14T09:21:12;1.60;;;0.73;;
32172;SDS011;18679;45.190;5.722;2023-03-14T09:24:13;0.70;;;0.38;;
32172;SDS011;18679;45.190;5.722;2023-03-14T09:27:15;1.73;;;0.80;;
32172;SDS011;18679;45.190;5.722;2023-03-14T09:30:16;1.55;;;0.63;;
32172;SDS011;18679;45.190;5.722;2023-03-14T09:33:18;3.88;;;1.10;;
32172;SDS011;18679;45.190;5.722;2023-03-14T09:36:19;2.92;;;0.68;;
32172;SDS011;18679;45.190;5.722;2023-03-14T09:39:20;8.02;;;1.20;;
32172;SDS011;18679;45.190;5.722;2023-03-14T09:42:22;0.50;;;0.40;;
32172;SDS011;18679;45.190;5.722;2023-03-14T09:45:29;1.05;;;0.60;;
32172;SDS011;18679;45.190;5.722;2023-03-14T09:48:34;1.87;;;0.80;;
32172;SDS011;18679;45.190;5.722;2023-03-14T09:51:35;2.85;;;0.75;;
32172;SDS011;18679;45.190;5.722;2023-03-14T09:54:39;1.65;;;1.02;;
32172;SDS011;18679;45.190;5.722;2023-03-14T09:57:48;3.17;;;1.35;;
32172;SDS011;18679;45.190;5.722;2023-03-14T10:00:53;4.13;;;1.30;;
32172;SDS011;18679;45.190;5.722;2023-03-14T10:03:57;4.55;;;1.83;;
32172;SDS011;18679;45.190;5.722;2023-03-14T10:07:04;8.93;;;1.20;;
32172;SDS011;18679;45.190;5.722;2023-03-14T10:10:09;6.10;;;1.20;;
32172;SDS011;18679;45.190;5.722;2023-03-14T10:13:15;1.70;;;0.77;;
32172;SDS011;18679;45.190;5.722;2023-03-14T10:16:29;2.28;;;1.08;;
32172;SDS011;18679;45.190;5.722;2023-03-14T10:19:33;2.80;;;1.40;;
32172;SDS011;18679;45.190;5.722;2023-03-14T10:22:35;1.55;;;0.68;;
32172;SDS011;18679;45.190;5.722;2023-03-14T10:25:37;4.78;;;1.60;;
32172;SDS011;18679;45.190;5.722;2023-03-14T10:29:02;3.47;;;0.68;;
32172;SDS011;18679;45.190;5.722;2023-03-14T10:32:04;1.23;;;0.55;;
32172;SDS011;18679;45.190;5.722;2023-03-14T10:35:17;0.40;;;0.40;;
32172;SDS011;18679;45.190;5.722;2023-03-14T10:38:22;3.50;;;0.38;;
32172;SDS011;18679;45.190;5.722;2023-03-14T10:41:30;2.92;;;0.40;;
32172;SDS011;18679;45.190;5.722;2023-03-14T10:44:33;3.50;;;0.77;;
32172;SDS011;18679;45.190;5.722;2023-03-14T10:47:35;1.20;;;0.50;;
32172;SDS011;18679;45.190;5.722;2023-03-14T10:50:58;0.80;;;0.40;;
32172;SDS011;18679;45.190;5.722;2023-03-14T10:54:21;0.35;;;0.30;;
32172;SDS011;18679;45.190;5.722;2023-03-14T10:57:26;3.17;;;0.85;;
32172;SDS011;18679;45.190;5.722;2023-03-14T11:00:27;2.85;;;0.80;;
32172;SDS011;18679;45.190;5.722;2023-03-14T11:03:33;4.53;;;1.00;;
32172;SDS011;18679;45.190;5.722;2023-03-14T11:06:44;1.17;;;0.68;;
32172;SDS011;18679;45.190;5.722;2023-03-14T11:10:02;1.75;;;0.80;;
32172;SDS011;18679;45.190;5.722;2023-03-14T11:13:39;3.00;;;0.52;;
32172;SDS011;18679;45.190;5.722;2023-03-14T11:20:33;3.55;;;0.50;;
32172;SDS011;18679;45.190;5.722;2023-03-14T11:37:00;1.88;;;0.88;;
32172;SDS011;18679;45.190;5.722;2023-03-14T11:40:14;1.65;;;0.57;;
32172;SDS011;18679;45.190;5.722;2023-03-14T11:50:07;2.38;;;0.80;;
32172;SDS011;18679;45.190;5.722;2023-03-14T11:53:19;2.97;;;0.70;;
32172;SDS011;18679;45.190;5.722;2023-03-14T12:06:50;1.10;;;0.68;;
32172;SDS011;18679;45.190;5.722;2023-03-14T12:09:51;2.67;;;0.90;;
32172;SDS011;18679;45.190;5.722;2023-03-14T12:12:55;3.10;;;0.57;;
32172;SDS011;18679;45.190;5.722;2023-03-14T12:15:58;3.33;;;0.82;;
32172;SDS011;18679;45.190;5.722;2023-03-14T12:19:24;1.88;;;0.32;;
32172;SDS011;18679;45.190;5.722;2023-03-14T12:22:30;7.53;;;0.85;;
32172;SDS011;18679;45.190;5.722;2023-03-14T12:25:36;1.40;;;0.52;;
32172;SDS011;18679;45.190;5.722;2023-03-14T12:28:38;3.42;;;0.68;;
32172;SDS011;18679;45.190;5.722;2023-03-14T12:38:56;3.30;;;0.50;;
32172;SDS011;18679;45.190;5.722;2023-03-14T12:42:10;1.10;;;0.55;;
32172;SDS011;18679;45.190;5.722;2023-03-14T12:45:33;1.55;;;0.50;;
32172;SDS011;18679;45.190;5.722;2023-03-14T12:48:36;3.35;;;0.70;;
32172;SDS011;18679;45.190;5.722;2023-03-14T12:51:40;3.40;;;0.63;;
32172;SDS011;18679;45.190;5.722;2023-03-14T12:54:51;2.20;;;0.70;;
32172;SDS011;18679;45.190;5.722;2023-03-14T12:58:08;1.67;;;0.52;;
32172;SDS011;18679;45.190;5.722;2023-03-14T13:01:18;1.52;;;0.55;;
32172;SDS011;18679;45.190;5.722;2023-03-14T13:04:26;2.60;;;0.55;;
32172;SDS011;18679;45.190;5.722;2023-03-14T13:34:42;4.68;;;0.70;;
32172;SDS011;18679;45.190;5.722;2023-03-14T13:37:53;2.13;;;0.40;;
32172;SDS011;18679;45.190;5.722;2023-03-14T13:41:00;5.07;;;1.95;;
32172;SDS011;18679;45.190;5.722;2023-03-14T14:05:22;1.52;;;0.60;;
32172;SDS011;18679;45.190;5.722;2023-03-14T14:08:24;4.45;;;0.50;;
32172;SDS011;18679;45.190;5.722;2023-03-14T14:14:44;2.03;;;0.40;;
32172;SDS011;18679;45.190;5.722;2023-03-14T14:18:01;2.40;;;0.45;;
32172;SDS011;18679;45.190;5.722;2023-03-14T14:21:08;2.60;;;0.40;;
32172;SDS011;18679;45.190;5.722;2023-03-14T14:24:13;1.98;;;0.60;;
32172;SDS011;18679;45.190;5.722;2023-03-14T14:27:17;2.53;;;0.60;;
32172;SDS011;18679;45.190;5.722;2023-03-14T14:30:27;1.08;;;0.60;;
32172;SDS011;18679;45.190;5.722;2023-03-14T14:33:42;3.33;;;0.63;;
32172;SDS011;18679;45.190;5.722;2023-03-14T14:37:02;19.38;;;1.05;;
32172;SDS011;18679;45.190;5.722;2023-03-14T14:40:08;2.35;;;0.43;;
32172;SDS011;18679;45.190;5.722;2023-03-14T14:43:22;2.05;;;0.35;;
32172;SDS011;18679;45.190;5.722;2023-03-14T14:46:28;2.97;;;1.00;;
32172;SDS011;18679;45.190;5.722;2023-03-14T14:49:33;3.50;;;0.73;;
32172;SDS011;18679;45.190;5.722;2023-03-14T14:52:40;1.80;;;0.60;;
32172;SDS011;18679;45.190;5.722;2023-03-14T14:55:43;1.60;;;0.40;;
32172;SDS011;18679;45.190;5.722;2023-03-14T14:58:44;1.13;;;0.60;;
32172;SDS011;18679;45.190;5.722;2023-03-14T15:01:47;1.85;;;0.40;;
32172;SDS011;18679;45.190;5.722;2023-03-14T15:04:48;1.65;;;0.43;;
32172;SDS011;18679;45.190;5.722;2023-03-14T15:07:49;4.05;;;1.10;;
32172;SDS011;18679;45.190;5.722;2023-03-14T15:10:50;3.33;;;0.98;;
32172;SDS011;18679;45.190;5.722;2023-03-14T15:13:52;1.05;;;0.35;;
32172;SDS011;18679;45.190;5.722;2023-03-14T15:16:54;3.05;;;0.57;;
32172;SDS011;18679;45.190;5.722;2023-03-14T15:19:55;4.00;;;1.25;;
32172;SDS011;18679;45.190;5.722;2023-03-14T15:22:58;6.80;;;1.10;;
32172;SDS011;18679;45.190;5.722;2023-03-14T15:25:59;3.00;;;1.33;;
32172;SDS011;18679;45.190;5.722;2023-03-14T15:29:00;3.85;;;1.00;;
32172;SDS011;18679;45.190;5.722;2023-03-14T15:32:01;3.10;;;0.70;;
32172;SDS011;18679;45.190;5.722;2023-03-14T15:35:02;0.93;;;0.30;;
32172;SDS011;18679;45.190;5.722;2023-03-14T15:38:04;2.67;;;0.77;;
32172;SDS011;18679;45.190;5.722;2023-03-14T15:41:05;3.15;;;0.70;;
32172;SDS011;18679;45.190;5.722;2023-03-14T15:44:06;0.88;;;0.50;;
32172;SDS011;18679;45.190;5.722;2023-03-14T15:47:08;2.30;;;0.50;;
32172;SDS011;18679;45.190;5.722;2023-03-14T15:50:11;0.75;;;0.43;;
32172;SDS011;18679;45.190;5.722;2023-03-14T15:53:12;2.35;;;0.43;;
32172;SDS011;18679;45.190;5.722;2023-03-14T15:56:15;3.33;;;0.43;;
32172;SDS011;18679;45.190;5.722;2023-03-14T15:59:18;4.80;;;0.82;;
32172;SDS011;18679;45.190;5.722;2023-03-14T16:02:18;4.60;;;0.73;;
32172;SDS011;18679;45.190;5.722;2023-03-14T16:05:19;3.42;;;0.65;;
32172;SDS011;18679;45.190;5.722;2023-03-14T16:08:21;1.25;;;0.50;;
32172;SDS011;18679;45.190;5.722;2023-03-14T16:11:26;1.60;;;0.50;;
32172;SDS011;18679;45.190;5.722;2023-03-14T16:14:27;0.93;;;0.40;;
32172;SDS011;18679;45.190;5.722;2023-03-14T16:17:28;0.30;;;0.20;;
32172;SDS011;18679;45.190;5.722;2023-03-14T16:20:29;2.72;;;0.28;;
32172;SDS011;18679;45.190;5.722;2023-03-14T16:23:31;0.80;;;0.30;;
32172;SDS011;18679;45.190;5.722;2023-03-14T16:26:33;3.35;;;1.08;;
32172;SDS011;18679;45.190;5.722;2023-03-14T16:29:36;3.33;;;0.50;;
32172;SDS011;18679;45.190;5.722;2023-03-14T16:32:37;0.65;;;0.32;;
32172;SDS011;18679;45.190;5.722;2023-03-14T16:35:39;0.63;;;0.25;;
32172;SDS011;18679;45.190;5.722;2023-03-14T16:38:40;3.03;;;0.60;;
32172;SDS011;18679;45.190;5.722;2023-03-14T16:41:43;0.40;;;0.30;;
32172;SDS011;18679;45.190;5.722;2023-03-14T16:44:44;0.30;;;0.30;;
32172;SDS011;18679;45.190;5.722;2023-03-14T16:47:45;1.38;;;0.90;;
32172;SDS011;18679;45.190;5.722;2023-03-14T16:50:48;8.25;;;2.88;;
32172;SDS011;18679;45.190;5.722;2023-03-14T16:53:50;6.63;;;1.52;;
32172;SDS011;18679;45.190;5.722;2023-03-14T16:56:51;1.33;;;0.70;;
32172;SDS011;18679;45.190;5.722;2023-03-14T16:59:53;6.78;;;1.40;;
32172;SDS011;18679;45.190;5.722;2023-03-14T17:02:58;4.93;;;0.63;;
32172;SDS011;18679;45.190;5.722;2023-03-14T17:05:59;1.48;;;0.88;;
32172;SDS011;18679;45.190;5.722;2023-03-14T17:09:03;1.40;;;0.57;;
32172;SDS011;18679;45.190;5.722;2023-03-14T17:25:30;4.30;;;1.52;;
32172;SDS011;18679;45.190;5.722;2023-03-14T17:32:31;5.35;;;1.60;;
32172;SDS011;18679;45.190;5.722;2023-03-14T17:35:33;2.70;;;1.70;;
32172;SDS011;18679;45.190;5.722;2023-03-14T17:38:34;3.55;;;1.60;;
32172;SDS011;18679;45.190;5.722;2023-03-14T17:41:38;4.28;;;1.25;;
32172;SDS011;18679;45.190;5.722;2023-03-14T17:44:39;2.30;;;1.17;;
32172;SDS011;18679;45.190;5.722;2023-03-14T17:47:53;3.25;;;1.10;;
32172;SDS011;18679;45.190;5.722;2023-03-14T17:51:04;8.02;;;1.80;;
32172;SDS011;18679;45.190;5.722;2023-03-14T17:54:05;3.85;;;1.60;;
32172;SDS011;18679;45.190;5.722;2023-03-14T17:57:23;4.60;;;1.08;;
32172;SDS011;18679;45.190;5.722;2023-03-14T18:00:24;2.67;;;1.20;;
32172;SDS011;18679;45.190;5.722;2023-03-14T18:03:25;2.58;;;1.10;;
32172;SDS011;18679;45.190;5.722;2023-03-14T18:06:27;5.50;;;1.30;;
32172;SDS011;18679;45.190;5.722;2023-03-14T18:09:30;1.70;;;1.05;;
32172;SDS011;18679;45.190;5.722;2023-03-14T18:12:31;6.65;;;1.75;;
32172;SDS011;18679;45.190;5.722;2023-03-14T18:15:34;2.30;;;1.23;;
32172;SDS011;18679;45.190;5.722;2023-03-14T18:18:35;3.85;;;1.90;;
32172;SDS011;18679;45.190;5.722;2023-03-14T18:21:37;4.25;;;1.30;;
32172;SDS011;18679;45.190;5.722;2023-03-14T18:24:40;3.10;;;1.25;;
32172;SDS011;18679;45.190;5.722;2023-03-14T18:27:41;3.95;;;1.70;;
32172;SDS011;18679;45.190;5.722;2023-03-14T18:30:43;6.80;;;2.38;;
32172;SDS011;18679;45.190;5.722;2023-03-14T18:33:51;10.00;;;3.10;;
32172;SDS011;18679;45.190;5.722;2023-03-14T18:36:54;6.25;;;2.10;;
32172;SDS011;18679;45.190;5.722;2023-03-14T18:39:56;6.10;;;1.80;;
32172;SDS011;18679;45.190;5.722;2023-03-14T18:42:57;6.65;;;1.52;;
32172;SDS011;18679;45.190;5.722;2023-03-14T18:45:58;10.98;;;2.10;;
32172;SDS011;18679;45.190;5.722;2023-03-14T18:48:59;8.95;;;2.28;;
32172;SDS011;18679;45.190;5.722;2023-03-14T18:52:03;5.22;;;2.10;;
32172;SDS011;18679;45.190;5.722;2023-03-14T18:55:04;8.10;;;2.63;;
32172;SDS011;18679;45.190;5.722;2023-03-14T18:58:06;11.10;;;2.80;;
32172;SDS011;18679;45.190;5.722;2023-03-14T19:01:10;8.70;;;2.95;;
32172;SDS011;18679;45.190;5.722;2023-03-14T19:04:11;8.13;;;2.67;;
32172;SDS011;18679;45.190;5.722;2023-03-14T19:07:12;11.10;;;2.88;;
32172;SDS011;18679;45.190;5.722;2023-03-14T19:10:14;8.32;;;2.20;;
32172;SDS011;18679;45.190;5.722;2023-03-14T19:13:16;5.85;;;2.20;;
32172;SDS011;18679;45.190;5.722;2023-03-14T19:16:17;4.35;;;1.70;;
32172;SDS011;18679;45.190;5.722;2023-03-14T19:19:18;5.88;;;2.28;;
32172;SDS011;18679;45.190;5.722;2023-03-14T19:22:20;4.40;;;1.70;;
32172;SDS011;18679;45.190;5.722;2023-03-14T19:25:21;7.72;;;1.88;;
32172;SDS011;18679;45.190;5.722;2023-03-14T19:28:23;3.58;;;1.73;;
32172;SDS011;18679;45.190;5.722;2023-03-14T19:31:25;11.57;;;3.67;;
32172;SDS011;18679;45.190;5.722;2023-03-14T19:34:27;4.60;;;2.13;;
32172;SDS011;18679;45.190;5.722;2023-03-14T19:37:29;14.20;;;3.65;;
32172;SDS011;18679;45.190;5.722;2023-03-14T19:40:30;19.20;;;8.45;;
32172;SDS011;18679;45.190;5.722;2023-03-14T19:43:32;7.13;;;2.05;;
32172;SDS011;18679;45.190;5.722;2023-03-14T19:46:33;7.70;;;1.92;;
32172;SDS011;18679;45.190;5.722;2023-03-14T19:49:35;7.20;;;2.22;;
32172;SDS011;18679;45.190;5.722;2023-03-14T19:52:36;7.32;;;3.00;;
32172;SDS011;18679;45.190;5.722;2023-03-14T19:55:38;9.55;;;2.85;;
32172;SDS011;18679;45.190;5.722;2023-03-14T19:58:45;5.45;;;2.50;;
32172;SDS011;18679;45.190;5.722;2023-03-14T20:01:46;7.88;;;2.00;;
32172;SDS011;18679;45.190;5.722;2023-03-14T20:04:49;11.50;;;3.38;;
32172;SDS011;18679;45.190;5.722;2023-03-14T20:07:53;8.98;;;3.20;;
32172;SDS011;18679;45.190;5.722;2023-03-14T20:10:55;9.57;;;2.35;;
32172;SDS011;18679;45.190;5.722;2023-03-14T20:13:56;5.68;;;1.58;;
32172;SDS011;18679;45.190;5.722;2023-03-14T20:16:58;7.18;;;2.22;;
32172;SDS011;18679;45.190;5.722;2023-03-14T20:20:01;8.38;;;2.10;;
32172;SDS011;18679;45.190;5.722;2023-03-14T20:23:09;7.93;;;1.92;;
32172;SDS011;18679;45.190;5.722;2023-03-14T20:26:12;12.48;;;2.00;;
32172;SDS011;18679;45.190;5.722;2023-03-14T20:29:13;8.32;;;2.30;;
32172;SDS011;18679;45.190;5.722;2023-03-14T20:32:14;11.27;;;2.08;;
32172;SDS011;18679;45.190;5.722;2023-03-14T20:35:17;5.38;;;2.40;;
32172;SDS011;18679;45.190;5.722;2023-03-14T20:38:26;6.45;;;2.35;;
32172;SDS011;18679;45.190;5.722;2023-03-14T20:41:30;5.85;;;2.05;;
32172;SDS011;18679;45.190;5.722;2023-03-14T20:44:31;9.45;;;1.95;;
32172;SDS011;18679;45.190;5.722;2023-03-14T20:47:33;4.10;;;2.00;;
32172;SDS011;18679;45.190;5.722;2023-03-14T20:50:35;7.95;;;2.72;;
32172;SDS011;18679;45.190;5.722;2023-03-14T20:53:36;10.90;;;3.00;;
32172;SDS011;18679;45.190;5.722;2023-03-14T20:56:37;8.02;;;2.90;;
32172;SDS011;18679;45.190;5.722;2023-03-14T20:59:39;7.32;;;2.58;;
32172;SDS011;18679;45.190;5.722;2023-03-14T21:02:40;5.88;;;2.00;;
32172;SDS011;18679;45.190;5.722;2023-03-14T21:05:45;8.57;;;2.13;;
32172;SDS011;18679;45.190;5.722;2023-03-14T21:08:47;9.23;;;2.50;;
32172;SDS011;18679;45.190;5.722;2023-03-14T21:11:48;6.28;;;1.95;;
32172;SDS011;18679;45.190;5.722;2023-03-14T21:14:50;5.35;;;2.42;;
32172;SDS011;18679;45.190;5.722;2023-03-14T21:17:52;8.98;;;2.53;;
32172;SDS011;18679;45.190;5.722;2023-03-14T21:20:55;5.20;;;2.10;;
32172;SDS011;18679;45.190;5.722;2023-03-14T21:23:57;10.57;;;2.90;;
32172;SDS011;18679;45.190;5.722;2023-03-14T21:27:00;11.57;;;2.85;;
32172;SDS011;18679;45.190;5.722;2023-03-14T21:30:01;5.32;;;2.17;;
32172;SDS011;18679;45.190;5.722;2023-03-14T21:33:03;6.90;;;2.47;;
32172;SDS011;18679;45.190;5.722;2023-03-14T21:36:04;5.72;;;2.72;;
32172;SDS011;18679;45.190;5.722;2023-03-14T21:39:08;5.15;;;2.25;;
32172;SDS011;18679;45.190;5.722;2023-03-14T21:42:11;11.15;;;2.88;;
32172;SDS011;18679;45.190;5.722;2023-03-14T21:45:12;9.82;;;2.55;;
32172;SDS011;18679;45.190;5.722;2023-03-14T21:48:16;10.05;;;2.22;;
32172;SDS011;18679;45.190;5.722;2023-03-14T21:51:17;6.93;;;2.33;;
32172;SDS011;18679;45.190;5.722;2023-03-14T21:54:20;4.80;;;1.90;;
32172;SDS011;18679;45.190;5.722;2023-03-14T21:57:21;4.40;;;2.28;;
32172;SDS011;18679;45.190;5.722;2023-03-14T22:00:29;7.17;;;2.10;;
32172;SDS011;18679;45.190;5.722;2023-03-14T22:03:30;3.30;;;1.85;;
32172;SDS011;18679;45.190;5.722;2023-03-14T22:06:33;6.20;;;2.35;;
32172;SDS011;18679;45.190;5.722;2023-03-14T22:09:34;6.72;;;1.95;;
32172;SDS011;18679;45.190;5.722;2023-03-14T22:12:36;9.90;;;2.70;;
32172;SDS011;18679;45.190;5.722;2023-03-14T22:15:37;8.70;;;2.40;;
32172;SDS011;18679;45.190;5.722;2023-03-14T22:18:38;7.57;;;2.65;;
32172;SDS011;18679;45.190;5.722;2023-03-14T22:21:39;14.48;;;2.42;;
32172;SDS011;18679;45.190;5.722;2023-03-14T22:24:40;6.65;;;2.58;;
32172;SDS011;18679;45.190;5.722;2023-03-14T22:27:41;8.18;;;2.72;;
32172;SDS011;18679;45.190;5.722;2023-03-14T22:30:46;7.68;;;3.05;;
32172;SDS011;18679;45.190;5.722;2023-03-14T22:33:48;6.45;;;2.97;;
32172;SDS011;18679;45.190;5.722;2023-03-14T22:36:49;12.98;;;3.17;;
32172;SDS011;18679;45.190;5.722;2023-03-14T22:39:50;10.25;;;2.97;;
32172;SDS011;18679;45.190;5.722;2023-03-14T22:42:52;6.88;;;2.53;;
32172;SDS011;18679;45.190;5.722;2023-03-14T22:45:57;7.35;;;2.75;;
32172;SDS011;18679;45.190;5.722;2023-03-14T22:49:02;8.07;;;3.03;;
32172;SDS011;18679;45.190;5.722;2023-03-14T22:52:03;10.55;;;3.17;;
32172;SDS011;18679;45.190;5.722;2023-03-14T22:55:05;7.95;;;2.35;;
32172;SDS011;18679;45.190;5.722;2023-03-14T22:58:06;5.82;;;2.75;;
32172;SDS011;18679;45.190;5.722;2023-03-14T23:01:07;5.82;;;2.75;;
32172;SDS011;18679;45.190;5.722;2023-03-14T23:04:08;11.77;;;2.45;;
32172;SDS011;18679;45.190;5.722;2023-03-14T23:07:09;14.90;;;4.15;;
32172;SDS011;18679;45.190;5.722;2023-03-14T23:10:11;7.13;;;2.42;;
32172;SDS011;18679;45.190;5.722;2023-03-14T23:13:12;5.38;;;2.45;;
32172;SDS011;18679;45.190;5.722;2023-03-14T23:16:13;8.20;;;2.40;;
32172;SDS011;18679;45.190;5.722;2023-03-14T23:19:15;7.72;;;2.83;;
32172;SDS011;18679;45.190;5.722;2023-03-14T23:22:16;9.00;;;2.78;;
32172;SDS011;18679;45.190;5.722;2023-03-14T23:25:17;4.88;;;2.17;;
32172;SDS011;18679;45.190;5.722;2023-03-14T23:28:19;7.72;;;2.67;;
32172;SDS011;18679;45.190;5.722;2023-03-14T23:31:22;3.58;;;2.15;;
32172;SDS011;18679;45.190;5.722;2023-03-14T23:34:25;6.20;;;2.22;;
32172;SDS011;18679;45.190;5.722;2023-03-14T23:37:26;8.18;;;2.03;;
32172;SDS011;18679;45.190;5.722;2023-03-14T23:40:27;6.03;;;1.55;;
32172;SDS011;18679;45.190;5.722;2023-03-14T23:43:28;13.23;;;2.15;;
32172;SDS011;18679;45.190;5.722;2023-03-14T23:46:29;4.32;;;1.60;;
32172;SDS011;18679;45.190;5.722;2023-03-14T23:49:30;11.57;;;2.10;;
32172;SDS011;18679;45.190;5.722;2023-03-14T23:52:32;13.82;;;2.08;;
32172;SDS011;18679;45.190;5.722;2023-03-14T23:55:33;4.00;;;1.70;;
32172;SDS011;18679;45.190;5.722;2023-03-14T23:58:34;5.78;;;2.05;;
